createdAt,value
2022-08-26T18:57:03.660Z,7.78
2022-08-26T19:00:11.261Z,6.30
2022-08-26T19:03:18.721Z,7.45
2022-08-26T19:06:23.719Z,8.48
2022-08-26T19:09:26.480Z,7.40
2022-08-26T19:12:29.663Z,7.22
2022-08-26T19:15:39.499Z,8.60
2022-08-26T19:18:41.595Z,8.27
2022-08-26T19:21:44.808Z,7.63
2022-08-26T19:24:46.889Z,6.40
2022-08-26T19:27:49.116Z,7.97
2022-08-26T19:30:53.088Z,5.43
2022-08-26T19:33:56.841Z,8.18
2022-08-26T19:36:58.977Z,7.33
2022-08-26T19:40:01.267Z,8.57
2022-08-26T19:43:04.318Z,7.78
2022-08-26T19:46:17.499Z,9.73
2022-08-26T19:49:19.903Z,7.47
2022-08-26T19:52:23.539Z,7.40
2022-08-26T19:55:32.313Z,6.47
2022-08-26T19:58:34.947Z,8.32
2022-08-26T20:01:37.000Z,6.60
2022-08-26T20:04:39.744Z,7.75
2022-08-26T20:07:42.335Z,8.13
2022-08-26T20:10:46.528Z,8.18
2022-08-26T20:13:50.029Z,9.02
2022-08-26T20:16:52.554Z,11.52
2022-08-26T20:20:26.905Z,7.45
2022-08-26T20:23:36.592Z,10.02
2022-08-26T20:26:42.835Z,8.70
2022-08-26T20:29:45.001Z,8.82
2022-08-26T20:32:47.042Z,9.02
2022-08-26T20:35:49.082Z,8.63
2022-08-26T20:38:51.274Z,9.05
2022-08-26T20:41:53.409Z,8.90
2022-08-26T20:44:55.500Z,8.00
2022-08-26T20:47:57.810Z,8.13
2022-08-26T20:51:00.937Z,8.13
2022-08-26T20:54:05.629Z,6.82
2022-08-26T20:57:07.990Z,8.13
2022-08-26T21:00:17.575Z,8.25
2022-08-26T21:03:23.085Z,9.60
2022-08-26T21:06:26.356Z,8.50
2022-08-26T21:09:31.617Z,8.63
2022-08-26T21:12:33.702Z,8.35
2022-08-26T21:15:35.716Z,8.98
2022-08-26T21:18:38.403Z,9.18
2022-08-26T21:21:41.378Z,9.95
2022-08-26T21:24:45.257Z,10.45
2022-08-26T21:27:49.475Z,11.15
2022-08-26T21:30:51.602Z,10.35
2022-08-26T21:33:53.798Z,11.32
2022-08-26T21:36:55.923Z,8.52
2022-08-26T21:40:02.287Z,10.13
2022-08-26T21:43:04.988Z,12.02
2022-08-26T21:46:14.639Z,9.05
2022-08-26T21:49:18.482Z,9.00
2022-08-26T21:55:23.603Z,9.50
2022-08-26T21:58:25.683Z,9.38
2022-08-26T22:01:32.053Z,9.48
2022-08-26T22:04:35.904Z,9.15
2022-08-26T22:07:38.007Z,11.15
2022-08-26T22:10:41.987Z,13.00
2022-08-26T22:13:45.756Z,12.10
2022-08-26T22:16:50.532Z,10.75
2022-08-26T22:19:53.373Z,9.57
2022-08-26T22:22:55.717Z,9.48
2022-08-26T22:25:58.283Z,10.50
2022-08-26T22:29:03.532Z,9.70
2022-08-26T22:32:06.139Z,10.63
2022-08-26T22:35:29.263Z,11.27
2022-08-26T22:38:33.976Z,12.20
2022-08-26T22:44:38.068Z,11.50
2022-08-26T22:47:40.911Z,12.95
2022-08-26T22:50:47.346Z,14.50
2022-08-26T22:53:49.861Z,13.30
2022-08-26T22:56:52.205Z,13.85
2022-08-26T22:59:54.365Z,13.68
2022-08-26T23:02:56.981Z,11.75
2022-08-26T23:06:00.404Z,11.80
2022-08-26T23:09:03.170Z,11.87
2022-08-26T23:12:05.957Z,13.32
2022-08-26T23:15:11.056Z,13.27
2022-08-26T23:18:14.904Z,13.32
2022-08-26T23:21:17.173Z,13.43
2022-08-26T23:24:20.103Z,13.20
2022-08-26T23:27:22.424Z,15.25
2022-08-26T23:30:27.525Z,12.65
2022-08-26T23:33:49.610Z,12.35
2022-08-26T23:36:52.835Z,11.95
2022-08-26T23:39:56.335Z,11.88
2022-08-26T23:43:00.170Z,12.57
2022-08-26T23:46:02.291Z,11.57
2022-08-26T23:49:05.002Z,11.00
2022-08-26T23:52:26.200Z,12.75
2022-08-26T23:55:28.731Z,12.85
2022-08-26T23:58:30.864Z,11.07
